sensor_id;sensor_type;location;lat;lon;timestamp;temperature;humidity
17845;DHT22;9047;53.486;10.218;2023-06-10T00:00:17;13.80;99.90
17845;DHT22;9047;53.486;10.218;2023-06-10T00:02:44;13.70;99.90
17845;DHT22;9047;53.486;10.218;2023-06-10T00:05:11;13.70;99.90
17845;DHT22;9047;53.486;10.218;2023-06-10T00:07:38;13.60;99.90
17845;DHT22;9047;53.486;10.218;2023-06-10T00:10:08;13.60;99.90
17845;DHT22;9047;53.486;10.218;2023-06-10T00:12:36;13.60;99.90
17845;DHT22;9047;53.486;10.218;2023-06-10T00:15:05;13.60;99.90
17845;DHT22;9047;53.486;10.218;2023-06-10T00:17:32;13.60;99.90
17845;DHT22;9047;53.486;10.218;2023-06-10T00:19:59;13.50;99.90
17845;DHT22;9047;53.486;10.218;2023-06-10T00:22:30;13.50;99.90
17845;DHT22;9047;53.486;10.218;2023-06-10T00:24:57;13.40;99.90
17845;DHT22;9047;53.486;10.218;2023-06-10T00:27:26;13.40;99.90
17845;DHT22;9047;53.486;10.218;2023-06-10T00:29:56;13.40;99.90
17845;DHT22;9047;53.486;10.218;2023-06-10T00:32:23;13.30;99.90
17845;DHT22;9047;53.486;10.218;2023-06-10T00:34:51;13.20;99.90
17845;DHT22;9047;53.486;10.218;2023-06-10T00:37:17;13.20;99.90
17845;DHT22;9047;53.486;10.218;2023-06-10T00:39:45;13.20;99.90
17845;DHT22;9047;53.486;10.218;2023-06-10T00:42:12;13.20;99.90
17845;DHT22;9047;53.486;10.218;2023-06-10T00:44:42;13.10;99.90
17845;DHT22;9047;53.486;10.218;2023-06-10T00:47:10;13.10;99.90
17845;DHT22;9047;53.486;10.218;2023-06-10T00:49:39;13.10;99.90
17845;DHT22;9047;53.486;10.218;2023-06-10T00:52:08;13.00;99.90
17845;DHT22;9047;53.486;10.218;2023-06-10T00:54:37;13.00;99.90
17845;DHT22;9047;53.486;10.218;2023-06-10T00:57:04;12.90;99.90
17845;DHT22;9047;53.486;10.218;2023-06-10T00:59:32;12.90;99.90
17845;DHT22;9047;53.486;10.218;2023-06-10T01:02:01;12.90;99.90
17845;DHT22;9047;53.486;10.218;2023-06-10T01:04:29;12.80;99.90
17845;DHT22;9047;53.486;10.218;2023-06-10T01:07:02;12.80;99.90
17845;DHT22;9047;53.486;10.218;2023-06-10T01:09:40;12.70;99.90
17845;DHT22;9047;53.486;10.218;2023-06-10T01:12:14;12.70;99.90
17845;DHT22;9047;53.486;10.218;2023-06-10T01:14:44;12.80;99.90
17845;DHT22;9047;53.486;10.218;2023-06-10T01:17:13;12.60;99.90
17845;DHT22;9047;53.486;10.218;2023-06-10T01:19:43;12.60;99.90
17845;DHT22;9047;53.486;10.218;2023-06-10T01:22:13;12.60;99.90
17845;DHT22;9047;53.486;10.218;2023-06-10T01:24:41;12.50;99.90
17845;DHT22;9047;53.486;10.218;2023-06-10T01:27:14;12.60;99.90
17845;DHT22;9047;53.486;10.218;2023-06-10T01:29:45;12.50;99.90
17845;DHT22;9047;53.486;10.218;2023-06-10T01:32:18;12.40;99.90
17845;DHT22;9047;53.486;10.218;2023-06-10T01:34:49;12.50;99.90
17845;DHT22;9047;53.486;10.218;2023-06-10T01:37:19;12.30;99.90
17845;DHT22;9047;53.486;10.218;2023-06-10T01:39:49;12.40;99.90
17845;DHT22;9047;53.486;10.218;2023-06-10T01:42:18;12.30;99.90
17845;DHT22;9047;53.486;10.218;2023-06-10T01:44:46;12.30;99.90
17845;DHT22;9047;53.486;10.218;2023-06-10T01:47:13;12.30;99.90
17845;DHT22;9047;53.486;10.218;2023-06-10T01:49:40;12.20;99.90
17845;DHT22;9047;53.486;10.218;2023-06-10T01:52:07;12.20;99.90
17845;DHT22;9047;53.486;10.218;2023-06-10T01:54:36;12.20;99.90
17845;DHT22;9047;53.486;10.218;2023-06-10T01:57:04;12.10;99.90
17845;DHT22;9047;53.486;10.218;2023-06-10T01:59:34;12.20;99.90
17845;DHT22;9047;53.486;10.218;2023-06-10T02:02:02;12.10;99.90
17845;DHT22;9047;53.486;10.218;2023-06-10T02:04:29;12.10;99.90
17845;DHT22;9047;53.486;10.218;2023-06-10T02:06:57;12.00;99.90
17845;DHT22;9047;53.486;10.218;2023-06-10T02:09:25;12.00;99.90
17845;DHT22;9047;53.486;10.218;2023-06-10T02:11:53;12.00;99.90
17845;DHT22;9047;53.486;10.218;2023-06-10T02:14:21;11.90;99.90
17845;DHT22;9047;53.486;10.218;2023-06-10T02:16:48;11.90;99.90
17845;DHT22;9047;53.486;10.218;2023-06-10T02:19:16;11.90;99.90
17845;DHT22;9047;53.486;10.218;2023-06-10T02:21:44;11.90;99.90
17845;DHT22;9047;53.486;10.218;2023-06-10T02:24:11;11.90;99.90
17845;DHT22;9047;53.486;10.218;2023-06-10T02:26:39;11.80;99.90
17845;DHT22;9047;53.486;10.218;2023-06-10T02:29:08;11.90;99.90
17845;DHT22;9047;53.486;10.218;2023-06-10T02:31:36;11.90;99.90
17845;DHT22;9047;53.486;10.218;2023-06-10T02:34:05;11.80;99.90
17845;DHT22;9047;53.486;10.218;2023-06-10T02:36:31;11.80;99.90
17845;DHT22;9047;53.486;10.218;2023-06-10T02:39:02;11.70;99.90
17845;DHT22;9047;53.486;10.218;2023-06-10T02:41:31;11.70;99.90
17845;DHT22;9047;53.486;10.218;2023-06-10T02:43:58;11.70;99.90
17845;DHT22;9047;53.486;10.218;2023-06-10T02:46:26;11.70;99.90
17845;DHT22;9047;53.486;10.218;2023-06-10T02:48:55;11.70;99.90
17845;DHT22;9047;53.486;10.218;2023-06-10T02:51:22;11.60;99.90
17845;DHT22;9047;53.486;10.218;2023-06-10T02:53:49;11.60;99.90
17845;DHT22;9047;53.486;10.218;2023-06-10T02:56:16;11.60;99.90
17845;DHT22;9047;53.486;10.218;2023-06-10T02:58:43;11.60;99.90
17845;DHT22;9047;53.486;10.218;2023-06-10T03:01:11;11.50;99.90
17845;DHT22;9047;53.486;10.218;2023-06-10T03:03:40;11.50;99.90
17845;DHT22;9047;53.486;10.218;2023-06-10T03:06:09;11.40;99.90
17845;DHT22;9047;53.486;10.218;2023-06-10T03:08:37;11.40;99.90
17845;DHT22;9047;53.486;10.218;2023-06-10T03:11:04;11.50;99.90
17845;DHT22;9047;53.486;10.218;2023-06-10T03:13:32;11.50;99.90
17845;DHT22;9047;53.486;10.218;2023-06-10T03:16:00;11.50;99.90
17845;DHT22;9047;53.486;10.218;2023-06-10T03:18:28;11.50;99.90
17845;DHT22;9047;53.486;10.218;2023-06-10T03:20:57;11.50;99.90
17845;DHT22;9047;53.486;10.218;2023-06-10T03:23:25;11.50;99.90
17845;DHT22;9047;53.486;10.218;2023-06-10T03:25:52;11.50;99.90
17845;DHT22;9047;53.486;10.218;2023-06-10T03:28:20;11.60;99.90
17845;DHT22;9047;53.486;10.218;2023-06-10T03:30:48;11.50;99.90
17845;DHT22;9047;53.486;10.218;2023-06-10T03:33:15;11.50;99.90
17845;DHT22;9047;53.486;10.218;2023-06-10T03:35:42;11.50;99.90
17845;DHT22;9047;53.486;10.218;2023-06-10T03:38:11;11.50;99.90
17845;DHT22;9047;53.486;10.218;2023-06-10T03:40:40;11.60;99.90
17845;DHT22;9047;53.486;10.218;2023-06-10T03:43:08;11.60;99.90
17845;DHT22;9047;53.486;10.218;2023-06-10T03:45:35;11.60;99.90
17845;DHT22;9047;53.486;10.218;2023-06-10T03:48:02;11.60;99.90
17845;DHT22;9047;53.486;10.218;2023-06-10T03:50:30;11.70;99.90
17845;DHT22;9047;53.486;10.218;2023-06-10T03:52:58;11.70;99.90
17845;DHT22;9047;53.486;10.218;2023-06-10T03:55:28;11.70;99.90
17845;DHT22;9047;53.486;10.218;2023-06-10T03:57:56;11.80;99.90
17845;DHT22;9047;53.486;10.218;2023-06-10T04:00:23;11.80;99.90
17845;DHT22;9047;53.486;10.218;2023-06-10T04:02:51;11.80;99.90
17845;DHT22;9047;53.486;10.218;2023-06-10T04:05:19;11.90;99.90
17845;DHT22;9047;53.486;10.218;2023-06-10T04:07:47;11.90;99.90
17845;DHT22;9047;53.486;10.218;2023-06-10T04:10:15;12.00;99.90
17845;DHT22;9047;53.486;10.218;2023-06-10T04:12:44;12.00;99.90
17845;DHT22;9047;53.486;10.218;2023-06-10T04:15:11;12.20;99.90
17845;DHT22;9047;53.486;10.218;2023-06-10T04:17:38;12.20;99.90
17845;DHT22;9047;53.486;10.218;2023-06-10T04:20:07;12.20;99.90
17845;DHT22;9047;53.486;10.218;2023-06-10T04:22:35;12.30;99.90
17845;DHT22;9047;53.486;10.218;2023-06-10T04:25:10;12.50;99.90
17845;DHT22;9047;53.486;10.218;2023-06-10T04:27:38;12.70;99.90
17845;DHT22;9047;53.486;10.218;2023-06-10T04:30:14;12.90;99.90
17845;DHT22;9047;53.486;10.218;2023-06-10T04:32:41;13.20;99.90
17845;DHT22;9047;53.486;10.218;2023-06-10T04:35:11;13.50;99.90
17845;DHT22;9047;53.486;10.218;2023-06-10T04:37:38;13.70;99.90
17845;DHT22;9047;53.486;10.218;2023-06-10T04:40:06;13.60;99.90
17845;DHT22;9047;53.486;10.218;2023-06-10T04:42:34;13.60;99.90
17845;DHT22;9047;53.486;10.218;2023-06-10T04:45:01;13.50;99.90
17845;DHT22;9047;53.486;10.218;2023-06-10T04:47:34;13.50;99.90
17845;DHT22;9047;53.486;10.218;2023-06-10T04:50:05;13.40;99.90
17845;DHT22;9047;53.486;10.218;2023-06-10T04:52:33;13.40;99.90
17845;DHT22;9047;53.486;10.218;2023-06-10T04:55:00;13.50;99.90
17845;DHT22;9047;53.486;10.218;2023-06-10T04:57:27;13.50;99.90
17845;DHT22;9047;53.486;10.218;2023-06-10T04:59:54;13.40;99.90
17845;DHT22;9047;53.486;10.218;2023-06-10T05:02:21;13.50;99.90
17845;DHT22;9047;53.486;10.218;2023-06-10T05:04:53;13.50;99.90
17845;DHT22;9047;53.486;10.218;2023-06-10T05:07:20;13.60;99.90
17845;DHT22;9047;53.486;10.218;2023-06-10T05:09:48;13.50;99.90
17845;DHT22;9047;53.486;10.218;2023-06-10T05:12:15;13.70;99.90
17845;DHT22;9047;53.486;10.218;2023-06-10T05:14:42;13.70;99.90
17845;DHT22;9047;53.486;10.218;2023-06-10T05:17:10;13.90;99.90
17845;DHT22;9047;53.486;10.218;2023-06-10T05:22:15;13.90;99.90
17845;DHT22;9047;53.486;10.218;2023-06-10T05:24:43;13.90;99.90
17845;DHT22;9047;53.486;10.218;2023-06-10T05:27:12;14.00;99.90
17845;DHT22;9047;53.486;10.218;2023-06-10T05:29:42;14.10;99.90
17845;DHT22;9047;53.486;10.218;2023-06-10T05:32:09;14.20;99.90
17845;DHT22;9047;53.486;10.218;2023-06-10T05:34:38;14.30;99.90
17845;DHT22;9047;53.486;10.218;2023-06-10T05:37:05;14.40;99.90
17845;DHT22;9047;53.486;10.218;2023-06-10T05:39:35;14.50;99.90
17845;DHT22;9047;53.486;10.218;2023-06-10T05:42:07;14.50;99.90
17845;DHT22;9047;53.486;10.218;2023-06-10T05:44:34;14.60;99.90
17845;DHT22;9047;53.486;10.218;2023-06-10T05:47:02;14.60;99.90
17845;DHT22;9047;53.486;10.218;2023-06-10T05:49:30;14.80;99.90
17845;DHT22;9047;53.486;10.218;2023-06-10T05:51:57;14.90;99.90
17845;DHT22;9047;53.486;10.218;2023-06-10T05:54:25;15.00;99.90
17845;DHT22;9047;53.486;10.218;2023-06-10T05:56:54;15.10;99.90
17845;DHT22;9047;53.486;10.218;2023-06-10T05:59:24;15.20;99.90
17845;DHT22;9047;53.486;10.218;2023-06-10T06:01:51;15.30;99.90
17845;DHT22;9047;53.486;10.218;2023-06-10T06:04:18;15.40;99.90
17845;DHT22;9047;53.486;10.218;2023-06-10T06:06:46;15.50;99.90
17845;DHT22;9047;53.486;10.218;2023-06-10T06:09:13;15.70;99.90
17845;DHT22;9047;53.486;10.218;2023-06-10T06:11:40;15.80;99.90
17845;DHT22;9047;53.486;10.218;2023-06-10T06:14:09;16.00;99.90
17845;DHT22;9047;53.486;10.218;2023-06-10T06:16:39;16.10;99.90
17845;DHT22;9047;53.486;10.218;2023-06-10T06:19:08;16.30;99.90
17845;DHT22;9047;53.486;10.218;2023-06-10T06:21:36;16.50;99.90
17845;DHT22;9047;53.486;10.218;2023-06-10T06:24:03;16.80;99.90
17845;DHT22;9047;53.486;10.218;2023-06-10T06:26:33;17.60;99.90
17845;DHT22;9047;53.486;10.218;2023-06-10T06:29:00;18.60;99.90
17845;DHT22;9047;53.486;10.218;2023-06-10T06:31:29;19.70;99.90
17845;DHT22;9047;53.486;10.218;2023-06-10T06:33:56;20.70;99.90
17845;DHT22;9047;53.486;10.218;2023-06-10T06:36:23;21.50;99.90
17845;DHT22;9047;53.486;10.218;2023-06-10T06:38:50;22.10;99.90
17845;DHT22;9047;53.486;10.218;2023-06-10T06:41:18;22.90;99.90
17845;DHT22;9047;53.486;10.218;2023-06-10T06:43:47;23.60;99.90
17845;DHT22;9047;53.486;10.218;2023-06-10T06:46:16;24.00;99.90
17845;DHT22;9047;53.486;10.218;2023-06-10T06:48:46;24.70;99.90
17845;DHT22;9047;53.486;10.218;2023-06-10T06:51:15;25.00;99.90
17845;DHT22;9047;53.486;10.218;2023-06-10T06:53:47;25.30;99.40
17845;DHT22;9047;53.486;10.218;2023-06-10T06:56:16;25.80;97.90
17845;DHT22;9047;53.486;10.218;2023-06-10T06:58:44;26.10;96.50
17845;DHT22;9047;53.486;10.218;2023-06-10T07:01:12;26.20;96.10
17845;DHT22;9047;53.486;10.218;2023-06-10T07:03:41;26.40;95.30
17845;DHT22;9047;53.486;10.218;2023-06-10T07:06:11;26.50;95.40
17845;DHT22;9047;53.486;10.218;2023-06-10T07:08:38;26.70;95.00
17845;DHT22;9047;53.486;10.218;2023-06-10T07:11:06;27.20;93.70
17845;DHT22;9047;53.486;10.218;2023-06-10T07:13:36;27.30;92.90
17845;DHT22;9047;53.486;10.218;2023-06-10T07:16:04;27.30;93.40
17845;DHT22;9047;53.486;10.218;2023-06-10T07:18:31;27.50;92.50
17845;DHT22;9047;53.486;10.218;2023-06-10T07:20:58;27.60;92.20
17845;DHT22;9047;53.486;10.218;2023-06-10T07:23:26;27.60;91.80
17845;DHT22;9047;53.486;10.218;2023-06-10T07:26:12;27.80;91.90
17845;DHT22;9047;53.486;10.218;2023-06-10T07:28:39;28.00;90.70
17845;DHT22;9047;53.486;10.218;2023-06-10T07:31:07;28.00;90.60
17845;DHT22;9047;53.486;10.218;2023-06-10T07:33:35;28.20;90.50
17845;DHT22;9047;53.486;10.218;2023-06-10T07:36:05;28.20;90.30
17845;DHT22;9047;53.486;10.218;2023-06-10T07:38:34;28.20;90.30
17845;DHT22;9047;53.486;10.218;2023-06-10T07:41:01;28.30;90.10
17845;DHT22;9047;53.486;10.218;2023-06-10T07:43:29;28.20;90.10
17845;DHT22;9047;53.486;10.218;2023-06-10T07:45:58;28.20;90.00
17845;DHT22;9047;53.486;10.218;2023-06-10T07:48:25;28.30;89.80
17845;DHT22;9047;53.486;10.218;2023-06-10T07:50:51;28.20;89.50
17845;DHT22;9047;53.486;10.218;2023-06-10T07:53:18;28.40;89.40
17845;DHT22;9047;53.486;10.218;2023-06-10T07:55:49;28.20;88.80
17845;DHT22;9047;53.486;10.218;2023-06-10T07:58:19;28.30;89.30
17845;DHT22;9047;53.486;10.218;2023-06-10T08:00:47;28.20;89.00
17845;DHT22;9047;53.486;10.218;2023-06-10T08:06:41;28.30;88.70
17845;DHT22;9047;53.486;10.218;2023-06-10T08:09:10;28.10;88.90
17845;DHT22;9047;53.486;10.218;2023-06-10T08:11:37;27.90;89.50
17845;DHT22;9047;53.486;10.218;2023-06-10T08:14:05;27.80;89.70
17845;DHT22;9047;53.486;10.218;2023-06-10T08:16:33;27.70;90.00
17845;DHT22;9047;53.486;10.218;2023-06-10T08:19:00;27.60;90.10
17845;DHT22;9047;53.486;10.218;2023-06-10T08:21:43;27.60;89.20
17845;DHT22;9047;53.486;10.218;2023-06-10T08:24:10;27.70;89.10
17845;DHT22;9047;53.486;10.218;2023-06-10T08:26:38;27.50;89.40
17845;DHT22;9047;53.486;10.218;2023-06-10T08:29:05;27.00;90.20
17845;DHT22;9047;53.486;10.218;2023-06-10T08:31:32;26.40;91.10
17845;DHT22;9047;53.486;10.218;2023-06-10T08:33:59;25.70;91.80
17845;DHT22;9047;53.486;10.218;2023-06-10T08:36:25;25.30;92.60
17845;DHT22;9047;53.486;10.218;2023-06-10T08:38:56;24.80;93.20
17845;DHT22;9047;53.486;10.218;2023-06-10T08:41:25;24.50;93.40
17845;DHT22;9047;53.486;10.218;2023-06-10T08:44:02;24.10;94.10
17845;DHT22;9047;53.486;10.218;2023-06-10T08:46:33;23.80;95.00
17845;DHT22;9047;53.486;10.218;2023-06-10T08:49:03;23.70;95.30
17845;DHT22;9047;53.486;10.218;2023-06-10T08:51:34;23.60;95.50
17845;DHT22;9047;53.486;10.218;2023-06-10T08:54:08;23.50;96.30
17845;DHT22;9047;53.486;10.218;2023-06-10T08:56:39;23.50;95.80
17845;DHT22;9047;53.486;10.218;2023-06-10T08:59:06;23.40;96.00
17845;DHT22;9047;53.486;10.218;2023-06-10T09:01:35;23.30;96.40
17845;DHT22;9047;53.486;10.218;2023-06-10T09:04:02;23.30;96.60
17845;DHT22;9047;53.486;10.218;2023-06-10T09:06:32;23.20;96.70
17845;DHT22;9047;53.486;10.218;2023-06-10T09:09:00;23.20;96.70
17845;DHT22;9047;53.486;10.218;2023-06-10T09:11:28;23.30;97.40
17845;DHT22;9047;53.486;10.218;2023-06-10T09:13:55;23.40;97.10
17845;DHT22;9047;53.486;10.218;2023-06-10T09:16:22;23.40;97.30
17845;DHT22;9047;53.486;10.218;2023-06-10T09:18:49;23.50;97.30
17845;DHT22;9047;53.486;10.218;2023-06-10T09:21:21;23.60;97.30
17845;DHT22;9047;53.486;10.218;2023-06-10T09:23:48;23.60;97.20
17845;DHT22;9047;53.486;10.218;2023-06-10T09:26:15;23.70;96.90
17845;DHT22;9047;53.486;10.218;2023-06-10T09:28:45;23.60;97.00
17845;DHT22;9047;53.486;10.218;2023-06-10T09:31:14;23.60;97.00
17845;DHT22;9047;53.486;10.218;2023-06-10T09:33:45;23.60;97.30
17845;DHT22;9047;53.486;10.218;2023-06-10T09:36:11;23.60;97.20
17845;DHT22;9047;53.486;10.218;2023-06-10T09:38:49;23.80;97.20
17845;DHT22;9047;53.486;10.218;2023-06-10T09:41:17;23.80;97.00
17845;DHT22;9047;53.486;10.218;2023-06-10T09:43:46;23.90;97.30
17845;DHT22;9047;53.486;10.218;2023-06-10T09:46:15;24.00;97.30
17845;DHT22;9047;53.486;10.218;2023-06-10T09:48:43;24.10;97.10
17845;DHT22;9047;53.486;10.218;2023-06-10T09:51:11;24.20;97.00
17845;DHT22;9047;53.486;10.218;2023-06-10T09:53:38;24.20;97.10
17845;DHT22;9047;53.486;10.218;2023-06-10T09:56:05;24.30;97.30
17845;DHT22;9047;53.486;10.218;2023-06-10T09:58:36;24.40;97.40
17845;DHT22;9047;53.486;10.218;2023-06-10T10:01:08;24.50;96.80
17845;DHT22;9047;53.486;10.218;2023-06-10T10:03:46;24.50;96.90
17845;DHT22;9047;53.486;10.218;2023-06-10T10:06:14;24.50;97.20
17845;DHT22;9047;53.486;10.218;2023-06-10T10:08:41;24.60;97.10
17845;DHT22;9047;53.486;10.218;2023-06-10T10:11:09;24.70;97.30
17845;DHT22;9047;53.486;10.218;2023-06-10T10:13:37;24.80;96.80
17845;DHT22;9047;53.486;10.218;2023-06-10T10:16:11;24.80;97.10
17845;DHT22;9047;53.486;10.218;2023-06-10T10:18:43;24.90;96.80
17845;DHT22;9047;53.486;10.218;2023-06-10T10:21:13;25.00;96.90
17845;DHT22;9047;53.486;10.218;2023-06-10T10:23:44;25.10;96.90
17845;DHT22;9047;53.486;10.218;2023-06-10T10:26:11;25.30;97.20
17845;DHT22;9047;53.486;10.218;2023-06-10T10:28:41;25.40;96.30
17845;DHT22;9047;53.486;10.218;2023-06-10T10:31:16;25.50;96.30
17845;DHT22;9047;53.486;10.218;2023-06-10T10:33:52;25.50;96.60
17845;DHT22;9047;53.486;10.218;2023-06-10T10:36:21;25.60;96.30
17845;DHT22;9047;53.486;10.218;2023-06-10T10:38:49;25.60;96.20
17845;DHT22;9047;53.486;10.218;2023-06-10T10:41:16;25.60;96.40
17845;DHT22;9047;53.486;10.218;2023-06-10T10:43:45;25.60;96.50
17845;DHT22;9047;53.486;10.218;2023-06-10T10:46:16;25.70;96.40
17845;DHT22;9047;53.486;10.218;2023-06-10T10:48:43;25.80;96.90
17845;DHT22;9047;53.486;10.218;2023-06-10T10:51:11;26.00;96.40
17845;DHT22;9047;53.486;10.218;2023-06-10T10:53:38;26.20;95.90
17845;DHT22;9047;53.486;10.218;2023-06-10T10:56:06;26.20;95.70
17845;DHT22;9047;53.486;10.218;2023-06-10T10:58:34;26.20;95.80
17845;DHT22;9047;53.486;10.218;2023-06-10T11:01:10;26.20;95.50
17845;DHT22;9047;53.486;10.218;2023-06-10T11:03:44;26.20;96.10
17845;DHT22;9047;53.486;10.218;2023-06-10T11:06:13;26.30;96.10
17845;DHT22;9047;53.486;10.218;2023-06-10T11:08:50;26.40;96.00
17845;DHT22;9047;53.486;10.218;2023-06-10T11:11:23;26.50;95.70
17845;DHT22;9047;53.486;10.218;2023-06-10T11:14:12;26.60;96.00
17845;DHT22;9047;53.486;10.218;2023-06-10T11:16:40;26.70;95.70
17845;DHT22;9047;53.486;10.218;2023-06-10T11:19:09;26.80;96.00
17845;DHT22;9047;53.486;10.218;2023-06-10T11:21:57;26.90;95.80
17845;DHT22;9047;53.486;10.218;2023-06-10T11:24:25;27.10;95.00
17845;DHT22;9047;53.486;10.218;2023-06-10T11:26:53;27.00;95.20
17845;DHT22;9047;53.486;10.218;2023-06-10T11:29:21;27.10;95.40
17845;DHT22;9047;53.486;10.218;2023-06-10T11:31:52;27.10;95.40
17845;DHT22;9047;53.486;10.218;2023-06-10T11:34:25;27.20;95.60
17845;DHT22;9047;53.486;10.218;2023-06-10T11:36:53;27.30;95.40
17845;DHT22;9047;53.486;10.218;2023-06-10T11:39:26;27.30;95.10
17845;DHT22;9047;53.486;10.218;2023-06-10T11:41:53;27.40;95.50
17845;DHT22;9047;53.486;10.218;2023-06-10T11:44:28;27.40;95.30
17845;DHT22;9047;53.486;10.218;2023-06-10T11:47:04;27.50;94.90
17845;DHT22;9047;53.486;10.218;2023-06-10T11:49:35;27.60;95.10
17845;DHT22;9047;53.486;10.218;2023-06-10T11:52:05;27.70;94.70
17845;DHT22;9047;53.486;10.218;2023-06-10T11:54:33;27.80;94.60
17845;DHT22;9047;53.486;10.218;2023-06-10T11:57:00;27.80;94.60
17845;DHT22;9047;53.486;10.218;2023-06-10T11:59:29;27.90;94.70
17845;DHT22;9047;53.486;10.218;2023-06-10T12:01:57;27.90;93.80
17845;DHT22;9047;53.486;10.218;2023-06-10T12:04:25;28.00;93.30
17845;DHT22;9047;53.486;10.218;2023-06-10T12:06:56;28.10;93.80
17845;DHT22;9047;53.486;10.218;2023-06-10T12:09:24;28.20;94.10
17845;DHT22;9047;53.486;10.218;2023-06-10T12:11:57;28.20;93.60
17845;DHT22;9047;53.486;10.218;2023-06-10T12:14:49;28.30;93.80
17845;DHT22;9047;53.486;10.218;2023-06-10T12:17:16;28.40;93.90
17845;DHT22;9047;53.486;10.218;2023-06-10T12:19:43;28.50;93.50
17845;DHT22;9047;53.486;10.218;2023-06-10T12:22:11;28.50;93.30
17845;DHT22;9047;53.486;10.218;2023-06-10T12:24:44;28.50;92.90
17845;DHT22;9047;53.486;10.218;2023-06-10T12:27:12;28.60;92.60
17845;DHT22;9047;53.486;10.218;2023-06-10T12:29:38;28.70;92.00
17845;DHT22;9047;53.486;10.218;2023-06-10T12:32:06;28.80;91.10
17845;DHT22;9047;53.486;10.218;2023-06-10T12:34:37;28.70;91.50
17845;DHT22;9047;53.486;10.218;2023-06-10T12:37:06;28.70;91.50
17845;DHT22;9047;53.486;10.218;2023-06-10T12:39:40;28.60;91.90
17845;DHT22;9047;53.486;10.218;2023-06-10T12:42:08;28.60;91.10
17845;DHT22;9047;53.486;10.218;2023-06-10T12:44:39;28.50;90.50
17845;DHT22;9047;53.486;10.218;2023-06-10T12:47:10;28.50;91.30
17845;DHT22;9047;53.486;10.218;2023-06-10T12:49:38;28.50;91.90
17845;DHT22;9047;53.486;10.218;2023-06-10T12:52:06;28.60;91.70
17845;DHT22;9047;53.486;10.218;2023-06-10T12:54:34;28.60;91.50
17845;DHT22;9047;53.486;10.218;2023-06-10T12:57:02;28.60;91.20
17845;DHT22;9047;53.486;10.218;2023-06-10T12:59:29;28.70;90.60
17845;DHT22;9047;53.486;10.218;2023-06-10T13:01:57;28.80;91.00
17845;DHT22;9047;53.486;10.218;2023-06-10T13:04:24;28.80;90.90
17845;DHT22;9047;53.486;10.218;2023-06-10T13:06:52;28.80;91.30
17845;DHT22;9047;53.486;10.218;2023-06-10T13:09:19;28.90;91.50
17845;DHT22;9047;53.486;10.218;2023-06-10T13:11:45;29.10;90.80
17845;DHT22;9047;53.486;10.218;2023-06-10T13:14:14;29.10;90.60
17845;DHT22;9047;53.486;10.218;2023-06-10T13:16:40;29.10;90.70
17845;DHT22;9047;53.486;10.218;2023-06-10T13:19:10;29.10;90.70
17845;DHT22;9047;53.486;10.218;2023-06-10T13:21:36;29.20;90.50
17845;DHT22;9047;53.486;10.218;2023-06-10T13:24:04;29.20;90.70
17845;DHT22;9047;53.486;10.218;2023-06-10T13:26:31;29.30;90.10
17845;DHT22;9047;53.486;10.218;2023-06-10T13:28:58;29.40;89.80
17845;DHT22;9047;53.486;10.218;2023-06-10T13:31:26;29.40;88.70
17845;DHT22;9047;53.486;10.218;2023-06-10T13:33:53;29.40;88.90
17845;DHT22;9047;53.486;10.218;2023-06-10T13:36:20;29.50;89.20
17845;DHT22;9047;53.486;10.218;2023-06-10T13:38:49;29.50;88.90
17845;DHT22;9047;53.486;10.218;2023-06-10T13:41:16;29.60;88.30
17845;DHT22;9047;53.486;10.218;2023-06-10T13:43:43;29.60;89.30
17845;DHT22;9047;53.486;10.218;2023-06-10T13:46:10;29.60;88.50
17845;DHT22;9047;53.486;10.218;2023-06-10T13:48:38;29.60;87.80
17845;DHT22;9047;53.486;10.218;2023-06-10T13:51:05;29.60;87.60
17845;DHT22;9047;53.486;10.218;2023-06-10T13:53:34;29.60;88.50
17845;DHT22;9047;53.486;10.218;2023-06-10T13:56:01;29.60;91.00
17845;DHT22;9047;53.486;10.218;2023-06-10T13:58:28;29.60;91.50
17845;DHT22;9047;53.486;10.218;2023-06-10T14:00:55;29.60;91.60
17845;DHT22;9047;53.486;10.218;2023-06-10T14:03:22;29.60;90.80
17845;DHT22;9047;53.486;10.218;2023-06-10T14:05:50;29.60;91.20
17845;DHT22;9047;53.486;10.218;2023-06-10T14:08:22;29.70;91.60
17845;DHT22;9047;53.486;10.218;2023-06-10T14:10:56;29.60;91.60
17845;DHT22;9047;53.486;10.218;2023-06-10T14:13:25;29.50;91.70
17845;DHT22;9047;53.486;10.218;2023-06-10T14:15:52;29.30;92.10
17845;DHT22;9047;53.486;10.218;2023-06-10T14:18:18;29.10;92.20
17845;DHT22;9047;53.486;10.218;2023-06-10T14:20:51;29.00;92.60
17845;DHT22;9047;53.486;10.218;2023-06-10T14:23:18;28.90;93.00
17845;DHT22;9047;53.486;10.218;2023-06-10T14:25:45;28.90;92.70
17845;DHT22;9047;53.486;10.218;2023-06-10T14:28:12;28.90;92.80
17845;DHT22;9047;53.486;10.218;2023-06-10T14:30:39;29.00;93.00
17845;DHT22;9047;53.486;10.218;2023-06-10T14:33:06;29.00;92.80
17845;DHT22;9047;53.486;10.218;2023-06-10T14:35:33;28.90;92.90
17845;DHT22;9047;53.486;10.218;2023-06-10T14:38:01;28.90;93.10
17845;DHT22;9047;53.486;10.218;2023-06-10T14:40:28;28.90;93.00
17845;DHT22;9047;53.486;10.218;2023-06-10T14:42:55;28.80;93.20
17845;DHT22;9047;53.486;10.218;2023-06-10T14:45:21;28.70;93.30
17845;DHT22;9047;53.486;10.218;2023-06-10T14:47:49;28.70;93.50
17845;DHT22;9047;53.486;10.218;2023-06-10T14:50:16;28.70;93.50
17845;DHT22;9047;53.486;10.218;2023-06-10T14:52:43;28.70;93.40
17845;DHT22;9047;53.486;10.218;2023-06-10T14:55:12;28.70;93.40
17845;DHT22;9047;53.486;10.218;2023-06-10T14:57:38;28.60;93.30
17845;DHT22;9047;53.486;10.218;2023-06-10T15:00:07;28.60;93.20
17845;DHT22;9047;53.486;10.218;2023-06-10T15:02:34;28.60;93.40
17845;DHT22;9047;53.486;10.218;2023-06-10T15:05:01;28.60;93.50
17845;DHT22;9047;53.486;10.218;2023-06-10T15:07:29;28.50;93.50
17845;DHT22;9047;53.486;10.218;2023-06-10T15:09:55;28.40;93.40
17845;DHT22;9047;53.486;10.218;2023-06-10T15:12:23;28.30;93.50
17845;DHT22;9047;53.486;10.218;2023-06-10T15:14:50;28.30;93.50
17845;DHT22;9047;53.486;10.218;2023-06-10T15:17:17;28.30;94.00
17845;DHT22;9047;53.486;10.218;2023-06-10T15:19:44;28.30;93.60
17845;DHT22;9047;53.486;10.218;2023-06-10T15:22:11;28.20;93.50
17845;DHT22;9047;53.486;10.218;2023-06-10T15:24:38;28.20;93.70
17845;DHT22;9047;53.486;10.218;2023-06-10T15:27:05;28.10;93.60
17845;DHT22;9047;53.486;10.218;2023-06-10T15:29:33;28.10;93.70
17845;DHT22;9047;53.486;10.218;2023-06-10T15:32:00;28.10;93.40
17845;DHT22;9047;53.486;10.218;2023-06-10T15:34:27;28.10;93.70
17845;DHT22;9047;53.486;10.218;2023-06-10T15:36:54;28.10;93.80
17845;DHT22;9047;53.486;10.218;2023-06-10T15:39:21;28.00;93.70
17845;DHT22;9047;53.486;10.218;2023-06-10T15:41:50;28.00;93.90
17845;DHT22;9047;53.486;10.218;2023-06-10T15:44:16;27.90;93.60